createdAt,value
2023-01-22T00:00:44.695Z, 30.12
2023-01-22T00:01:44.671Z, 30.12
2023-01-22T00:02:44.690Z, 30.08
2023-01-22T00:03:46.562Z, 30.07
2023-01-22T00:04:44.692Z, 30.06
2023-01-22T00:05:44.728Z, 30.08
2023-01-22T00:06:44.705Z, 30.05
2023-01-22T00:07:44.722Z, 30.06
2023-01-22T00:08:44.727Z, 30.03
2023-01-22T00:09:44.726Z, 29.99
2023-01-22T00:10:44.777Z, 29.98
2023-01-22T00:11:44.772Z, 29.97
2023-01-22T00:12:44.782Z, 29.96
2023-01-22T00:13:44.844Z, 29.97
2023-01-22T00:14:44.858Z, 29.97
2023-01-22T00:15:45.035Z, 29.99
2023-01-22T00:16:44.857Z, 29.95
2023-01-22T00:17:44.863Z, 29.96
2023-01-22T00:18:44.855Z, 29.89
2023-01-22T00:19:44.854Z, 29.94
2023-01-22T00:20:44.900Z, 29.94
2023-01-22T00:21:44.920Z, 29.92
2023-01-22T00:22:44.896Z, 29.88
2023-01-22T00:23:44.969Z, 29.85
2023-01-22T00:24:44.939Z, 29.86
2023-01-22T00:25:44.992Z, 29.84
2023-01-22T00:26:44.970Z, 29.84
2023-01-22T00:27:45.032Z, 29.80
2023-01-22T00:28:45.015Z, 29.81
2023-01-22T00:29:45.011Z, 29.79
2023-01-22T00:30:45.011Z, 29.76
2023-01-22T00:31:45.209Z, 29.73
2023-01-22T00:32:45.025Z, 29.76
2023-01-22T00:33:45.047Z, 29.75
2023-01-22T00:34:45.128Z, 29.73
2023-01-22T00:35:45.116Z, 29.73
2023-01-22T00:36:45.152Z, 29.73
2023-01-22T00:37:45.121Z, 29.74
2023-01-22T00:38:45.183Z, 29.75
2023-01-22T00:39:45.142Z, 29.74
2023-01-22T00:40:45.217Z, 29.70
2023-01-22T00:41:45.203Z, 29.69
2023-01-22T00:42:45.222Z, 29.69
2023-01-22T00:43:45.223Z, 29.67
2023-01-22T00:44:45.218Z, 29.70
2023-01-22T00:45:45.204Z, 29.67
2023-01-22T00:46:45.277Z, 29.69
2023-01-22T00:47:45.212Z, 29.69
2023-01-22T00:48:45.337Z, 29.66
2023-01-22T00:49:45.291Z, 29.63
2023-01-22T00:50:45.290Z, 29.65
2023-01-22T00:51:55.298Z, 29.64
2023-01-22T00:52:45.350Z, 29.67
2023-01-22T00:53:45.335Z, 29.68
2023-01-22T00:54:45.329Z, 29.65
2023-01-22T00:55:45.329Z, 29.64
2023-01-22T00:56:45.338Z, 29.62
2023-01-22T00:57:45.404Z, 29.60
2023-01-22T00:58:45.389Z, 29.63
2023-01-22T00:59:45.389Z, 29.62
2023-01-22T01:00:45.449Z, 29.59
2023-01-22T01:01:45.521Z, 29.53
2023-01-22T01:02:45.487Z, 29.51
2023-01-22T01:03:45.459Z, 29.52
2023-01-22T01:04:45.513Z, 29.57
2023-01-22T01:05:45.501Z, 29.60
2023-01-22T01:06:45.502Z, 29.57
2023-01-22T01:07:45.517Z, 29.53
2023-01-22T01:08:45.497Z, 29.51
2023-01-22T01:09:45.502Z, 29.53
2023-01-22T01:10:45.518Z, 29.52
2023-01-22T01:11:45.579Z, 29.52
2023-01-22T01:12:45.549Z, 29.48
2023-01-22T01:13:45.596Z, 29.47
2023-01-22T01:14:45.563Z, 29.48
2023-01-22T01:15:45.704Z, 29.45
2023-01-22T01:16:45.614Z, 29.45
2023-01-22T01:17:45.685Z, 29.42
2023-01-22T01:18:45.662Z, 29.42
2023-01-22T01:19:45.701Z, 29.43
2023-01-22T01:20:45.677Z, 29.45
2023-01-22T01:21:45.729Z, 29.45
2023-01-22T01:22:45.712Z, 29.41
2023-01-22T01:23:45.721Z, 29.37
2023-01-22T01:24:45.725Z, 29.37
2023-01-22T01:25:45.717Z, 29.35
2023-01-22T01:26:45.740Z, 29.38
2023-01-22T01:27:45.725Z, 29.37
2023-01-22T01:28:45.869Z, 29.36
2023-01-22T01:29:45.766Z, 29.33
2023-01-22T01:30:45.827Z, 29.32
2023-01-22T01:31:45.847Z, 29.33
2023-01-22T01:32:45.876Z, 29.31
2023-01-22T01:33:45.839Z, 29.33
2023-01-22T01:34:45.850Z, 29.28
2023-01-22T01:35:45.844Z, 29.26
2023-01-22T01:36:49.208Z, 29.25
2023-01-22T01:37:45.861Z, 29.23
2023-01-22T01:38:45.862Z, 29.21
2023-01-22T01:39:45.885Z, 29.21
2023-01-22T01:40:45.883Z, 29.24
2023-01-22T01:41:45.970Z, 29.20
2023-01-22T01:42:45.922Z, 29.19
2023-01-22T01:43:45.970Z, 29.21
2023-01-22T01:44:45.952Z, 29.24
2023-01-22T01:45:45.973Z, 29.19
2023-01-22T01:46:45.984Z, 29.16
2023-01-22T01:47:46.007Z, 29.14
2023-01-22T01:48:45.980Z, 29.12
2023-01-22T01:49:46.004Z, 29.16
2023-01-22T01:50:46.040Z, 29.14
2023-01-22T01:51:46.047Z, 29.14
2023-01-22T01:52:46.041Z, 29.14
2023-01-22T01:53:46.041Z, 29.12
2023-01-22T01:54:46.114Z, 29.10
2023-01-22T01:55:46.103Z, 29.10
2023-01-22T01:56:46.163Z, 29.11
2023-01-22T01:57:46.134Z, 29.09
2023-01-22T01:58:46.188Z, 29.06
2023-01-22T01:59:46.157Z, 29.07
2023-01-22T02:00:46.258Z, 29.06
2023-01-22T02:01:46.213Z, 29.06
2023-01-22T02:02:46.189Z, 29.05
2023-01-22T02:03:46.197Z, 29.06
2023-01-22T02:04:46.183Z, 29.05
2023-01-22T02:05:46.275Z, 29.04
2023-01-22T02:06:46.235Z, 29.02
2023-01-22T02:07:46.266Z, 29.01
2023-01-22T02:08:46.250Z, 28.99
2023-01-22T02:09:46.263Z, 28.98
2023-01-22T02:10:46.259Z, 28.98
2023-01-22T02:11:46.258Z, 29.02
2023-01-22T02:12:46.285Z, 29.00
2023-01-22T02:13:46.296Z, 28.98
2023-01-22T02:14:46.326Z, 28.97
2023-01-22T02:15:46.319Z, 28.96
2023-01-22T02:16:46.350Z, 28.94
2023-01-22T02:17:46.340Z, 28.92
2023-01-22T02:18:46.373Z, 28.94
2023-01-22T02:19:46.460Z, 28.89
2023-01-22T02:20:46.415Z, 28.90
2023-01-22T02:21:46.404Z, 28.90
2023-01-22T02:22:46.412Z, 28.91
2023-01-22T02:23:46.412Z, 28.89
2023-01-22T02:24:49.513Z, 28.89
2023-01-22T02:25:46.475Z, 28.89
2023-01-22T02:26:46.521Z, 28.89
2023-01-22T02:27:46.476Z, 28.90
2023-01-22T02:28:46.492Z, 28.91
2023-01-22T02:29:46.495Z, 28.88
2023-01-22T02:30:46.577Z, 28.88
2023-01-22T02:31:46.606Z, 28.87
2023-01-22T02:32:46.502Z, 28.86
2023-01-22T02:33:46.509Z, 28.85
2023-01-22T02:34:46.517Z, 28.84
2023-01-22T02:35:46.629Z, 28.82
2023-01-22T02:36:46.595Z, 28.81
2023-01-22T02:37:46.594Z, 28.80
2023-01-22T02:38:46.595Z, 28.78
2023-01-22T02:39:46.606Z, 28.78
2023-01-22T02:40:46.655Z, 28.78
2023-01-22T02:41:46.632Z, 28.80
2023-01-22T02:42:46.722Z, 28.78
2023-01-22T02:43:46.693Z, 28.75
2023-01-22T02:44:46.702Z, 28.76
2023-01-22T02:45:46.776Z, 28.72
2023-01-22T02:46:46.700Z, 28.70
2023-01-22T02:47:46.706Z, 28.73
2023-01-22T02:48:46.710Z, 28.73
2023-01-22T02:49:46.728Z, 28.74
2023-01-22T02:50:46.829Z, 28.72
2023-01-22T02:51:46.749Z, 28.71
2023-01-22T02:52:46.761Z, 28.71
2023-01-22T02:53:46.792Z, 28.69
2023-01-22T02:54:46.775Z, 28.66
2023-01-22T02:55:46.782Z, 28.68
2023-01-22T02:56:46.786Z, 28.66
2023-01-22T02:57:46.858Z, 28.66
2023-01-22T02:58:46.823Z, 28.65
2023-01-22T02:59:46.890Z, 28.65
2023-01-22T03:00:46.896Z, 28.63
2023-01-22T03:01:46.929Z, 28.61
2023-01-22T03:02:46.896Z, 28.62
2023-01-22T03:03:46.975Z, 28.61
2023-01-22T03:04:46.946Z, 28.61
2023-01-22T03:05:46.962Z, 28.61
2023-01-22T03:06:47.020Z, 28.58
2023-01-22T03:07:46.941Z, 28.57
2023-01-22T03:08:46.964Z, 28.56
2023-01-22T03:09:46.971Z, 28.56
2023-01-22T03:10:47.006Z, 28.55
2023-01-22T03:11:46.993Z, 28.57
2023-01-22T03:12:47.073Z, 28.53
2023-01-22T03:13:47.060Z, 28.52
2023-01-22T03:14:47.104Z, 28.49
2023-01-22T03:15:47.086Z, 28.52
2023-01-22T03:16:47.161Z, 28.50
2023-01-22T03:17:47.073Z, 28.47
2023-01-22T03:18:47.076Z, 28.47
2023-01-22T03:19:47.113Z, 28.45
2023-01-22T03:20:47.115Z, 28.46
2023-01-22T03:21:47.174Z, 28.48
2023-01-22T03:22:47.153Z, 28.48
2023-01-22T03:23:47.199Z, 28.46
2023-01-22T03:24:47.163Z, 28.43
2023-01-22T03:25:47.179Z, 28.42
2023-01-22T03:26:47.178Z, 28.41
2023-01-22T03:27:47.166Z, 28.45
2023-01-22T03:28:47.199Z, 28.47
2023-01-22T03:29:47.176Z, 28.47
2023-01-22T03:30:47.232Z, 28.42
2023-01-22T03:31:47.355Z, 28.42
2023-01-22T03:32:47.237Z, 28.39
2023-01-22T03:33:47.294Z, 28.41
2023-01-22T03:34:47.291Z, 28.40
2023-01-22T03:35:47.300Z, 28.39
2023-01-22T03:36:47.298Z, 28.37
2023-01-22T03:37:47.301Z, 28.40
2023-01-22T03:38:47.335Z, 28.42
2023-01-22T03:39:47.327Z, 28.37
2023-01-22T03:40:47.360Z, 28.35
2023-01-22T03:41:47.377Z, 28.34
2023-01-22T03:42:47.357Z, 28.35
2023-01-22T03:43:47.419Z, 28.36
2023-01-22T03:44:47.383Z, 28.33
2023-01-22T03:45:47.481Z, 28.35
2023-01-22T03:46:47.432Z, 28.33
2023-01-22T03:47:47.440Z, 28.32
2023-01-22T03:48:47.435Z, 28.31
2023-01-22T03:49:47.503Z, 28.26
2023-01-22T03:50:47.527Z, 28.32
2023-01-22T03:51:47.506Z, 28.29
2023-01-22T03:52:47.500Z, 28.30
2023-01-22T03:53:47.519Z, 28.29
2023-01-22T03:54:47.512Z, 28.29
2023-01-22T03:55:47.548Z, 28.28
2023-01-22T03:56:47.593Z, 28.27
2023-01-22T03:57:47.575Z, 28.24
2023-01-22T03:58:47.627Z, 28.24
2023-01-22T03:59:47.607Z, 28.26
2023-01-22T04:00:47.613Z, 28.25
2023-01-22T04:01:47.607Z, 28.25
2023-01-22T04:02:47.609Z, 28.24
2023-01-22T04:03:47.639Z, 28.23
2023-01-22T04:04:47.703Z, 28.22
2023-01-22T04:05:47.704Z, 28.24
2023-01-22T04:06:47.681Z, 28.22
2023-01-22T04:07:47.739Z, 28.21
2023-01-22T04:08:47.723Z, 28.21
2023-01-22T04:09:47.750Z, 28.18
2023-01-22T04:10:47.750Z, 28.16
2023-01-22T04:11:47.731Z, 28.13
2023-01-22T04:12:47.790Z, 28.13
2023-01-22T04:13:47.767Z, 28.15
2023-01-22T04:14:47.777Z, 28.15
2023-01-22T04:15:47.801Z, 28.12
2023-01-22T04:16:47.803Z, 28.13
2023-01-22T04:17:47.775Z, 28.12
2023-01-22T04:18:47.785Z, 28.11
2023-01-22T04:19:47.868Z, 28.13
2023-01-22T04:20:47.844Z, 28.13
2023-01-22T04:21:47.890Z, 28.09
2023-01-22T04:22:47.870Z, 28.10
2023-01-22T04:23:47.900Z, 28.12
2023-01-22T04:24:47.880Z, 28.12
2023-01-22T04:25:47.963Z, 28.11
2023-01-22T04:26:47.947Z, 28.14
2023-01-22T04:27:47.970Z, 28.13
2023-01-22T04:28:47.944Z, 28.10
2023-01-22T04:29:48.002Z, 28.06
2023-01-22T04:30:48.088Z, 28.04
2023-01-22T04:31:48.136Z, 28.83
2023-01-22T04:32:47.991Z, 29.72
2023-01-22T04:33:47.988Z, 37.35
2023-01-22T04:34:47.993Z, 44.13
2023-01-22T04:35:48.003Z, 44.49
2023-01-22T04:36:48.011Z, 40.05
2023-01-22T04:37:48.012Z, 36.54
2023-01-22T04:38:48.014Z, 34.74
2023-01-22T04:39:48.048Z, 32.91
2023-01-22T04:40:48.056Z, 31.06
2023-01-22T04:41:48.061Z, 29.13
2023-01-22T04:42:48.130Z, 26.21
2023-01-22T04:43:48.132Z, 25.25
2023-01-22T04:44:48.139Z, 29.16
2023-01-22T04:45:48.175Z, 33.17
2023-01-22T04:46:48.141Z, 35.94
2023-01-22T04:47:48.157Z, 37.61
2023-01-22T04:48:48.167Z, 39.13
2023-01-22T04:49:48.260Z, 40.97
2023-01-22T04:50:48.330Z, 43.03
2023-01-22T04:51:48.275Z, 42.24
2023-01-22T04:52:48.256Z, 39.77
2023-01-22T04:53:48.340Z, 37.38
2023-01-22T04:54:48.314Z, 35.16
2023-01-22T04:55:48.333Z, 33.43
2023-01-22T04:56:48.321Z, 31.81
2023-01-22T04:57:48.316Z, 29.63
2023-01-22T04:58:48.311Z, 27.80
2023-01-22T04:59:48.324Z, 31.24
2023-01-22T05:00:48.336Z, 35.55
2023-01-22T05:01:48.338Z, 38.91
2023-01-22T05:02:48.443Z, 40.72
2023-01-22T05:03:48.398Z, 42.65
2023-01-22T05:04:48.395Z, 45.13
2023-01-22T05:05:48.420Z, 48.07
2023-01-22T05:06:48.396Z, 51.70
2023-01-22T05:07:48.479Z, 55.78
2023-01-22T05:08:48.464Z, 59.49
2023-01-22T05:09:48.493Z, 68.59
2023-01-22T05:10:48.481Z, 54.06
2023-01-22T05:11:48.483Z, 52.24
2023-01-22T05:12:48.477Z, 53.48
2023-01-22T05:13:48.476Z, 54.48
2023-01-22T05:14:48.497Z, 56.64
2023-01-22T05:15:48.547Z, 59.91
2023-01-22T05:16:48.585Z, 68.16
2023-01-22T05:17:48.573Z, 57.17
2023-01-22T05:18:48.614Z, 53.26
2023-01-22T05:19:48.600Z, 54.44
2023-01-22T05:20:48.612Z, 55.36
2023-01-22T05:21:48.605Z, 57.69
2023-01-22T05:22:48.675Z, 61.01
2023-01-22T05:23:48.653Z, 66.93
2023-01-22T05:24:48.650Z, 54.05
2023-01-22T05:25:48.721Z, 53.98
2023-01-22T05:26:48.658Z, 55.16
2023-01-22T05:27:48.723Z, 55.89
2023-01-22T05:28:48.716Z, 56.45
2023-01-22T05:29:48.739Z, 57.55
2023-01-22T05:30:48.895Z, 58.05
2023-01-22T05:31:48.802Z, 56.26
2023-01-22T05:32:48.792Z, 54.58
2023-01-22T05:33:48.765Z, 53.11
2023-01-22T05:34:48.806Z, 51.81
2023-01-22T05:35:48.789Z, 50.61
2023-01-22T05:36:48.777Z, 49.56
2023-01-22T05:37:48.787Z, 48.65
2023-01-22T05:38:48.808Z, 47.67
2023-01-22T05:39:48.819Z, 46.71
2023-01-22T05:40:48.843Z, 45.68
2023-01-22T05:41:48.925Z, 44.64
2023-01-22T05:42:48.888Z, 43.63
2023-01-22T05:43:48.935Z, 42.74
2023-01-22T05:44:48.918Z, 41.99
2023-01-22T05:45:48.950Z, 41.35
2023-01-22T05:46:48.927Z, 40.76
2023-01-22T05:47:48.932Z, 40.29
2023-01-22T05:48:48.930Z, 39.87
2023-01-22T05:49:48.954Z, 39.51
2023-01-22T05:50:49.113Z, 39.14
2023-01-22T05:51:49.007Z, 38.74
2023-01-22T05:52:49.043Z, 38.22
2023-01-22T05:53:49.021Z, 37.52
2023-01-22T05:54:49.058Z, 36.85
2023-01-22T05:55:49.046Z, 40.41
2023-01-22T05:56:49.057Z, 46.03
2023-01-22T05:57:49.052Z, 49.47
2023-01-22T05:58:49.059Z, 48.98
2023-01-22T05:59:49.065Z, 47.46
2023-01-22T06:00:49.114Z, 46.62
2023-01-22T06:01:49.105Z, 44.30
2023-01-22T06:02:49.172Z, 41.29
2023-01-22T06:03:49.179Z, 38.55
2023-01-22T06:04:49.130Z, 36.03
2023-01-22T06:05:49.172Z, 33.63
2023-01-22T06:06:49.157Z, 32.01
2023-01-22T06:07:49.231Z, 31.18
2023-01-22T06:08:49.211Z, 34.03
2023-01-22T06:09:49.209Z, 39.84
2023-01-22T06:10:49.229Z, 44.40
2023-01-22T06:11:49.214Z, 47.74
2023-01-22T06:12:49.239Z, 50.22
2023-01-22T06:13:49.276Z, 51.97
2023-01-22T06:14:49.327Z, 53.98
2023-01-22T06:15:49.325Z, 54.26
2023-01-22T06:16:49.326Z, 54.58
2023-01-22T06:17:49.316Z, 54.17
2023-01-22T06:18:49.311Z, 53.34
2023-01-22T06:19:49.383Z, 52.86
2023-01-22T06:20:49.361Z, 52.52
2023-01-22T06:21:49.370Z, 52.22
2023-01-22T06:22:49.345Z, 51.95
2023-01-22T06:23:49.381Z, 51.70
2023-01-22T06:24:49.375Z, 51.45
2023-01-22T06:25:49.384Z, 51.21
2023-01-22T06:26:49.464Z, 50.99
2023-01-22T06:27:49.427Z, 50.80
2023-01-22T06:28:49.434Z, 50.55
2023-01-22T06:29:49.427Z, 50.36
2023-01-22T06:30:49.581Z, 50.20
2023-01-22T06:31:49.501Z, 49.97
2023-01-22T06:32:49.462Z, 49.80
2023-01-22T06:33:49.557Z, 49.62
2023-01-22T06:34:49.516Z, 49.40
2023-01-22T06:35:49.595Z, 49.25
2023-01-22T06:36:49.568Z, 49.04
2023-01-22T06:37:49.603Z, 48.83
2023-01-22T06:38:49.584Z, 48.68
2023-01-22T06:39:49.593Z, 48.55
2023-01-22T06:40:49.597Z, 48.39
2023-01-22T06:41:49.599Z, 48.19
2023-01-22T06:42:49.602Z, 47.99
2023-01-22T06:43:49.609Z, 47.81
2023-01-22T06:44:49.674Z, 47.67
2023-01-22T06:45:49.644Z, 47.54
2023-01-22T06:46:49.759Z, 47.32
2023-01-22T06:47:49.660Z, 47.15
2023-01-22T06:48:50.028Z, 47.03
2023-01-22T06:49:49.729Z, 46.88
2023-01-22T06:50:49.822Z, 46.72
2023-01-22T06:51:49.718Z, 46.60
2023-01-22T06:52:49.715Z, 46.46
2023-01-22T06:53:49.808Z, 46.32
2023-01-22T06:54:49.809Z, 46.22
2023-01-22T06:55:49.813Z, 46.06
2023-01-22T06:56:49.792Z, 45.89
2023-01-22T06:57:49.801Z, 45.83
2023-01-22T06:58:49.871Z, 45.67
2023-01-22T06:59:49.887Z, 45.56
2023-01-22T07:00:49.907Z, 45.47
2023-01-22T07:01:49.956Z, 45.32
2023-01-22T07:02:49.924Z, 45.22
2023-01-22T07:03:50.017Z, 45.07
2023-01-22T07:04:49.909Z, 44.96
2023-01-22T07:05:49.907Z, 44.87
2023-01-22T07:06:49.919Z, 44.80
2023-01-22T07:07:49.916Z, 44.65
2023-01-22T07:08:49.920Z, 44.51
2023-01-22T07:09:49.961Z, 44.38
2023-01-22T07:10:49.963Z, 44.26
2023-01-22T07:11:50.030Z, 44.22
2023-01-22T07:12:50.015Z, 44.11
2023-01-22T07:13:50.008Z, 43.99
2023-01-22T07:14:50.007Z, 43.91
2023-01-22T07:15:50.045Z, 43.76
2023-01-22T07:16:50.012Z, 43.69
2023-01-22T07:17:50.051Z, 43.57
2023-01-22T07:18:50.085Z, 43.50
2023-01-22T07:19:50.081Z, 43.40
2023-01-22T07:20:50.115Z, 43.31
2023-01-22T07:21:50.103Z, 43.22
2023-01-22T07:22:50.150Z, 43.16
2023-01-22T07:23:50.134Z, 43.05
2023-01-22T07:24:50.139Z, 42.95
2023-01-22T07:25:50.162Z, 42.89
2023-01-22T07:26:50.202Z, 42.82
2023-01-22T07:27:50.195Z, 42.73
2023-01-22T07:28:50.175Z, 42.69
2023-01-22T07:29:50.210Z, 42.68
2023-01-22T07:30:50.225Z, 42.59
2023-01-22T07:31:50.303Z, 42.50
2023-01-22T07:32:50.211Z, 42.43
2023-01-22T07:33:50.228Z, 42.33
2023-01-22T07:34:50.245Z, 42.28
2023-01-22T07:35:50.263Z, 42.24
2023-01-22T07:36:50.336Z, 42.14
2023-01-22T07:37:50.312Z, 42.07
2023-01-22T07:38:50.305Z, 41.94
2023-01-22T07:39:50.300Z, 41.88
2023-01-22T07:40:50.323Z, 41.86
2023-01-22T07:41:50.322Z, 41.82
2023-01-22T07:42:50.320Z, 41.72
2023-01-22T07:43:50.389Z, 41.70
2023-01-22T07:44:50.368Z, 41.64
2023-01-22T07:45:50.378Z, 41.57
2023-01-22T07:46:50.466Z, 41.49
2023-01-22T07:47:50.388Z, 41.45
2023-01-22T07:48:50.395Z, 41.37
2023-01-22T07:49:50.457Z, 41.31
2023-01-22T07:50:50.511Z, 41.24
2023-01-22T07:51:50.453Z, 41.22
2023-01-22T07:52:50.499Z, 41.14
2023-01-22T07:53:50.470Z, 41.08
2023-01-22T07:54:50.557Z, 41.00
2023-01-22T07:55:50.558Z, 40.97
2023-01-22T07:56:50.537Z, 40.89
2023-01-22T07:57:50.535Z, 40.83
2023-01-22T07:58:55.603Z, 40.79
2023-01-22T07:59:50.550Z, 40.76
2023-01-22T08:00:50.614Z, 40.69
2023-01-22T08:01:50.671Z, 40.66
2023-01-22T08:02:50.618Z, 40.69
2023-01-22T08:03:50.635Z, 40.64
2023-01-22T08:04:50.622Z, 40.62
2023-01-22T08:05:50.683Z, 40.55
2023-01-22T08:06:50.655Z, 40.51
2023-01-22T08:07:50.690Z, 40.49
2023-01-22T08:08:50.686Z, 40.46
2023-01-22T08:09:50.702Z, 40.39
2023-01-22T08:10:50.700Z, 40.33
2023-01-22T08:11:50.694Z, 40.26
2023-01-22T08:12:50.709Z, 40.15
2023-01-22T08:13:50.719Z, 40.13
2023-01-22T08:14:50.722Z, 40.00
2023-01-22T08:15:50.768Z, 39.99
2023-01-22T08:16:50.763Z, 39.91
2023-01-22T08:17:50.763Z, 39.87
2023-01-22T08:18:50.850Z, 39.78
2023-01-22T08:19:50.819Z, 39.74
2023-01-22T08:20:50.903Z, 39.71
2023-01-22T08:21:50.872Z, 39.69
2023-01-22T08:22:50.872Z, 39.62
2023-01-22T08:23:50.875Z, 39.58
2023-01-22T08:24:50.878Z, 39.52
2023-01-22T08:25:50.955Z, 39.45
2023-01-22T08:26:50.936Z, 39.44
2023-01-22T08:27:50.938Z, 39.41
2023-01-22T08:28:50.949Z, 39.35
2023-01-22T08:29:50.957Z, 39.28
2023-01-22T08:30:51.001Z, 39.29
2023-01-22T08:31:51.103Z, 39.27
2023-01-22T08:32:50.957Z, 39.24
2023-01-22T08:33:51.026Z, 39.17
2023-01-22T08:34:51.017Z, 39.13
2023-01-22T08:35:51.050Z, 39.09
2023-01-22T08:36:51.035Z, 39.08
2023-01-22T08:37:51.027Z, 39.39
2023-01-22T08:38:51.105Z, 42.80
2023-01-22T08:39:51.086Z, 49.37
2023-01-22T08:40:51.160Z, 51.88
2023-01-22T08:41:51.100Z, 52.52
2023-01-22T08:42:51.099Z, 52.33
2023-01-22T08:43:51.099Z, 50.44
2023-01-22T08:44:51.124Z, 47.50
2023-01-22T08:45:51.232Z, 44.31
2023-01-22T08:46:51.142Z, 42.63
2023-01-22T08:47:51.196Z, 43.41
2023-01-22T08:48:51.193Z, 45.47
2023-01-22T08:49:51.154Z, 47.30
2023-01-22T08:50:51.227Z, 49.77
2023-01-22T08:51:51.189Z, 52.60
2023-01-22T08:52:51.198Z, 55.98
2023-01-22T08:53:51.197Z, 59.31
2023-01-22T08:54:51.203Z, 67.93
2023-01-22T08:55:51.230Z, 54.19
2023-01-22T08:56:51.310Z, 52.18
2023-01-22T08:57:51.268Z, 53.35
2023-01-22T08:58:51.311Z, 54.57
2023-01-22T09:00:00.702Z, 56.66
2023-01-22T09:00:51.370Z, 59.16
2023-01-22T09:01:51.380Z, 65.64
2023-01-22T09:02:51.297Z, 59.40
2023-01-22T09:03:51.374Z, 52.67
2023-01-22T09:04:51.369Z, 54.13
2023-01-22T09:05:51.375Z, 55.07
2023-01-22T09:06:51.362Z, 56.25
2023-01-22T09:07:51.357Z, 57.18
2023-01-22T09:08:51.371Z, 57.83
2023-01-22T09:09:51.384Z, 58.14
2023-01-22T09:10:51.471Z, 58.34
2023-01-22T09:11:51.458Z, 58.46
2023-01-22T09:12:51.459Z, 58.53
2023-01-22T09:13:51.444Z, 58.57
2023-01-22T09:14:51.459Z, 58.50
2023-01-22T09:15:51.476Z, 58.50
2023-01-22T09:16:51.529Z, 58.37
2023-01-22T09:17:51.539Z, 58.28
2023-01-22T09:18:51.500Z, 58.21
2023-01-22T09:19:51.554Z, 57.98
2023-01-22T09:20:51.565Z, 57.84
2023-01-22T09:21:51.527Z, 57.74
2023-01-22T09:22:51.522Z, 57.60
2023-01-22T09:23:51.526Z, 57.49
2023-01-22T09:24:51.537Z, 57.32
2023-01-22T09:25:51.559Z, 57.20
2023-01-22T09:26:51.623Z, 57.04
2023-01-22T09:27:51.671Z, 56.79
2023-01-22T09:28:51.640Z, 56.59
2023-01-22T09:29:51.618Z, 56.45
2023-01-22T09:30:51.737Z, 56.34
2023-01-22T09:31:51.674Z, 56.13
2023-01-22T09:32:51.660Z, 56.00
2023-01-22T09:33:51.650Z, 55.88
2023-01-22T09:34:51.644Z, 55.73
2023-01-22T09:35:51.678Z, 55.55
2023-01-22T09:36:51.710Z, 55.40
2023-01-22T09:37:51.752Z, 55.19
2023-01-22T09:38:51.721Z, 55.10
2023-01-22T09:39:51.740Z, 54.94
2023-01-22T09:40:51.739Z, 54.80
2023-01-22T09:41:51.727Z, 54.54
2023-01-22T09:42:51.798Z, 54.39
2023-01-22T09:43:51.785Z, 54.24
2023-01-22T09:44:51.820Z, 54.11
2023-01-22T09:45:52.870Z, 53.98
2023-01-22T09:46:51.859Z, 53.85
2023-01-22T09:47:51.844Z, 53.72
2023-01-22T09:48:51.830Z, 53.62
2023-01-22T09:49:51.842Z, 53.38
2023-01-22T09:50:51.879Z, 53.32
2023-01-22T09:51:51.886Z, 53.14
2023-01-22T09:52:51.883Z, 53.01
2023-01-22T09:53:51.859Z, 52.87
2023-01-22T09:54:51.861Z, 52.74
2023-01-22T09:55:51.889Z, 52.66
2023-01-22T09:56:51.895Z, 52.61
2023-01-22T09:57:51.880Z, 52.54
2023-01-22T09:58:51.888Z, 52.41
2023-01-22T09:59:51.911Z, 52.22
2023-01-22T10:00:52.038Z, 52.05
2023-01-22T10:01:51.919Z, 52.03
2023-01-22T10:02:52.015Z, 51.97
2023-01-22T10:03:51.993Z, 51.88
2023-01-22T10:04:51.986Z, 51.87
2023-01-22T10:05:52.023Z, 51.79
2023-01-22T10:06:51.999Z, 51.61
2023-01-22T10:07:51.999Z, 51.44
2023-01-22T10:08:51.993Z, 51.30
2023-01-22T10:09:52.071Z, 51.13
2023-01-22T10:10:52.041Z, 51.02
2023-01-22T10:11:52.067Z, 50.97
2023-01-22T10:12:52.052Z, 50.86
2023-01-22T10:13:52.076Z, 50.75
2023-01-22T10:14:52.063Z, 50.61
2023-01-22T10:15:52.091Z, 50.60
2023-01-22T10:16:52.278Z, 50.52
2023-01-22T10:17:52.073Z, 50.43
2023-01-22T10:18:52.136Z, 50.32
2023-01-22T10:19:52.109Z, 50.24
2023-01-22T10:20:52.123Z, 50.12
2023-01-22T10:21:52.167Z, 50.10
2023-01-22T10:22:52.159Z, 49.95
2023-01-22T10:23:52.193Z, 49.89
2023-01-22T10:24:52.173Z, 49.79
2023-01-22T10:25:52.179Z, 49.71
2023-01-22T10:26:52.180Z, 49.63
2023-01-22T10:27:52.172Z, 49.53
2023-01-22T10:28:52.218Z, 49.53
2023-01-22T10:29:52.203Z, 49.39
2023-01-22T10:30:52.348Z, 49.29
2023-01-22T10:31:52.322Z, 49.19
2023-01-22T10:32:52.214Z, 49.13
2023-01-22T10:33:52.227Z, 49.09
2023-01-22T10:34:52.235Z, 49.02
2023-01-22T10:35:52.315Z, 48.90
2023-01-22T10:36:52.300Z, 48.76
2023-01-22T10:37:52.343Z, 48.72
2023-01-22T10:38:52.314Z, 48.68
2023-01-22T10:39:52.365Z, 48.58
2023-01-22T10:40:52.346Z, 48.49
2023-01-22T10:41:52.395Z, 48.39
2023-01-22T10:42:52.369Z, 48.33
2023-01-22T10:43:52.424Z, 48.27
2023-01-22T10:44:52.426Z, 48.23
2023-01-22T10:45:52.447Z, 48.22
2023-01-22T10:50:52.571Z, 47.86
2023-01-22T10:51:52.514Z, 47.84
2023-01-22T10:52:52.512Z, 47.75
2023-01-22T10:53:52.510Z, 47.73
2023-01-22T10:54:52.545Z, 47.60
2023-01-22T10:55:52.536Z, 47.64
2023-01-22T10:56:52.537Z, 47.53
2023-01-22T10:57:52.553Z, 47.46
2023-01-22T10:58:52.573Z, 47.40
2023-01-22T10:59:52.580Z, 47.30
2023-01-22T11:00:52.630Z, 47.24
2023-01-22T11:01:53.709Z, 49.08
2023-01-22T11:02:52.698Z, 49.71
2023-01-22T11:03:52.612Z, 49.42
2023-01-22T11:04:52.614Z, 47.87
2023-01-22T11:05:52.627Z, 45.12
2023-01-22T11:06:52.717Z, 42.09
2023-01-22T11:07:52.679Z, 39.30
2023-01-22T11:08:52.703Z, 37.69
2023-01-22T11:09:52.756Z, 40.02
2023-01-22T11:10:52.743Z, 42.46
2023-01-22T11:11:52.733Z, 43.35
2023-01-22T11:12:52.723Z, 43.85
2023-01-22T11:13:52.734Z, 45.07
2023-01-22T11:14:52.833Z, 46.67
2023-01-22T11:15:52.849Z, 47.30
2023-01-22T11:16:52.851Z, 48.15
2023-01-22T11:17:52.837Z, 50.62
2023-01-22T11:18:52.821Z, 53.77
2023-01-22T11:19:52.875Z, 56.73
2023-01-22T11:20:52.862Z, 59.98
2023-01-22T11:21:52.914Z, 68.64
2023-01-22T11:22:52.873Z, 52.86
2023-01-22T11:23:52.869Z, 52.22
2023-01-22T11:24:52.938Z, 53.37
2023-01-22T11:25:52.905Z, 54.54
2023-01-22T11:26:52.955Z, 56.45
2023-01-22T11:27:52.958Z, 59.00
2023-01-22T11:28:52.938Z, 64.75
2023-01-22T11:29:52.937Z, 59.97
2023-01-22T11:30:53.049Z, 52.20
2023-01-22T11:31:52.982Z, 53.40
2023-01-22T11:32:52.964Z, 54.68
2023-01-22T11:33:52.978Z, 55.66
2023-01-22T11:34:52.975Z, 56.07
2023-01-22T11:35:53.032Z, 56.49
2023-01-22T11:36:53.009Z, 56.83
2023-01-22T11:37:53.098Z, 57.00
2023-01-22T11:38:53.063Z, 56.98
2023-01-22T11:39:53.067Z, 56.98
2023-01-22T11:40:53.134Z, 56.96
2023-01-22T11:41:53.097Z, 56.91
2023-01-22T11:42:53.154Z, 56.84
2023-01-22T11:43:53.125Z, 56.65
2023-01-22T11:44:53.201Z, 56.51
2023-01-22T11:45:53.188Z, 56.41
2023-01-22T11:46:53.150Z, 56.29
2023-01-22T11:47:53.152Z, 56.10
2023-01-22T11:48:53.156Z, 55.90
2023-01-22T11:49:53.170Z, 55.71
2023-01-22T11:50:53.227Z, 55.58
2023-01-22T11:51:53.182Z, 55.35
2023-01-22T11:52:53.217Z, 55.26
2023-01-22T11:53:53.209Z, 55.08
2023-01-22T11:54:53.226Z, 54.85
2023-01-22T11:55:53.251Z, 54.64
2023-01-22T11:56:53.244Z, 54.47
2023-01-22T11:57:53.329Z, 54.26
2023-01-22T11:58:53.305Z, 54.11
2023-01-22T11:59:53.345Z, 53.97
2023-01-22T12:00:53.344Z, 53.72
2023-01-22T12:01:53.399Z, 53.57
2023-01-22T12:02:53.459Z, 53.43
2023-01-22T12:03:53.551Z, 53.26
2023-01-22T12:04:53.367Z, 53.05
2023-01-22T12:05:53.377Z, 52.88
2023-01-22T12:06:53.411Z, 52.67
2023-01-22T12:07:53.429Z, 52.54
2023-01-22T12:08:53.484Z, 52.38
2023-01-22T12:09:53.453Z, 52.25
2023-01-22T12:10:55.030Z, 52.15
2023-01-22T12:11:53.541Z, 52.00
2023-01-22T12:12:53.512Z, 51.82
2023-01-22T12:13:53.497Z, 51.72
2023-01-22T12:14:53.507Z, 51.58
2023-01-22T12:15:53.654Z, 51.48
2023-01-22T12:16:53.558Z, 51.32
2023-01-22T12:17:53.578Z, 51.19
2023-01-22T12:18:53.569Z, 51.04
2023-01-22T12:19:53.568Z, 50.91
2023-01-22T12:20:53.622Z, 50.79
2023-01-22T12:21:53.568Z, 50.63
2023-01-22T12:22:53.620Z, 50.53
2023-01-22T12:23:53.585Z, 50.36
2023-01-22T12:24:53.679Z, 50.27
2023-01-22T12:25:53.669Z, 50.20
2023-01-22T12:26:53.651Z, 50.04
2023-01-22T12:35:35.328Z, 49.19
2023-01-22T12:35:53.818Z, 49.10
2023-01-22T12:36:53.814Z, 48.95
2023-01-22T12:37:53.808Z, 48.87
2023-01-22T12:38:53.810Z, 48.73
2023-01-22T12:39:53.803Z, 48.62